Time;durP1;ratioP1;P1;durP2;ratioP2;P2;SDS_P1;SDS_P2;PMS_P1;PMS_P2;Temp;Humidity;BMP_temperature;BMP_pressure;BME280_temperature;BME280_humidity;BME280_pressure;Samples;Min_cycle;Max_cycle;Signal;HPM_P1;HPM_P2
2021/12/05 00:17:42;;;;;;;95.40;37.25;;;3.10;97.70;;;;;;5067886;28;20131;-52
2021/12/05 00:22:48;;;;;;;110.00;41.30;;;3.00;99.70;;;;;;5069490;28;20020;-53
2021/12/05 00:25:24;;;;;;;87.00;34.88;;;3.10;99.90;;;;;;5069028;28;20032;-53
2021/12/05 00:33:40;;;;;;;;;;;3.10;92.30;;;;;;5072053;28;20536;-52
2021/12/05 00:49:36;;;;;;;84.47;34.17;;;3.00;99.90;;;;;;5071005;28;20083;-52
2021/12/05 01:15:32;;;;;;;73.90;30.85;;;2.90;99.90;;;;;;5069690;28;20472;-53
2021/12/05 01:20:30;;;;;;;57.33;25.48;;;2.90;99.90;;;;;;5065901;28;20025;-52
2021/12/05 01:23:08;;;;;;;63.50;27.38;;;2.80;98.20;;;;;;5069021;28;20016;-52
2021/12/05 01:25:44;;;;;;;62.42;26.98;;;2.70;99.10;;;;;;5067762;28;20023;-51
2021/12/05 01:28:45;;;;;;;57.15;26.60;;;2.70;99.20;;;;;;5067583;28;20115;-51
2021/12/05 01:52:32;;;;;;;63.05;24.58;;;2.80;99.90;;;;;;5068515;28;20033;-53
2021/12/05 02:38:47;;;;;;;20.83;9.80;;;2.50;99.90;;;;;;5058362;28;20062;-53
2021/12/05 02:43:35;;;;;;;17.90;10.05;;;2.10;99.90;;;;;;5089717;28;20020;-53
2021/12/05 02:46:03;;;;;;;19.15;10.43;;;2.10;99.90;;;;;;5089996;28;20031;-53
2021/12/05 02:48:32;;;;;;;24.58;12.35;;;2.00;99.90;;;;;;5089654;28;20495;-52
2021/12/05 02:50:59;;;;;;;20.63;11.10;;;2.00;99.90;;;;;;5073033;28;20119;-53
2021/12/05 02:53:37;;;;;;;20.65;12.32;;;2.00;99.90;;;;;;5069427;28;20017;-53
2021/12/05 02:56:05;;;;;;;23.02;12.77;;;2.00;99.90;;;;;;5070129;28;20430;-53
2021/12/05 03:01:44;;;;;;;24.27;14.82;;;2.00;99.90;;;;;;5035395;28;20064;-53
2021/12/05 03:04:10;;;;;;;23.02;14.68;;;1.90;99.90;;;;;;5069311;28;20029;-53
2021/12/05 03:06:38;;;;;;;22.67;14.02;;;1.80;99.90;;;;;;5071572;28;20079;-53
2021/12/05 03:09:14;;;;;;;25.38;14.57;;;1.70;99.90;;;;;;5072677;28;20050;-53
2021/12/05 03:11:41;;;;;;;26.73;14.88;;;1.70;99.90;;;;;;5072839;28;20041;-52
2021/12/05 03:14:08;;;;;;;27.02;15.65;;;1.60;99.90;;;;;;5072827;28;20028;-52
2021/12/05 03:16:35;;;;;;;25.67;15.13;;;1.70;99.90;;;;;;5072826;28;20032;-52
2021/12/05 03:19:01;;;;;;;25.67;14.52;;;1.70;99.90;;;;;;5072858;28;20498;-51
2021/12/05 03:21:27;;;;;;;24.70;14.18;;;1.60;99.90;;;;;;5092610;28;20059;-54
2021/12/05 03:23:53;;;;;;;25.95;14.63;;;1.60;99.90;;;;;;5093257;28;20027;-51
2021/12/05 03:26:23;;;;;;;24.23;15.07;;;1.50;99.90;;;;;;5092908;28;20471;-54
2021/12/05 03:28:50;;;;;;;22.38;13.65;;;1.50;99.90;;;;;;5092996;28;20780;-52
2021/12/05 03:31:17;;;;;;;27.15;15.30;;;1.50;99.90;;;;;;5092882;28;20028;-52
2021/12/05 03:33:43;;;;;;;25.52;14.45;;;1.50;99.90;;;;;;5092674;28;20027;-53
2021/12/05 03:36:09;;;;;;;25.98;14.43;;;1.40;99.90;;;;;;5092851;28;20028;-51
2021/12/05 03:38:37;;;;;;;27.45;14.95;;;1.50;99.90;;;;;;5092507;28;20021;-53
2021/12/05 03:41:03;;;;;;;27.05;14.43;;;1.50;99.90;;;;;;5092772;28;20082;-53
2021/12/05 03:43:30;;;;;;;27.70;14.98;;;1.60;99.90;;;;;;5092902;28;20715;-52
2021/12/05 03:45:57;;;;;;;23.45;14.50;;;1.50;99.90;;;;;;5092654;28;20043;-54
2021/12/05 03:48:25;;;;;;;25.65;15.02;;;1.50;99.90;;;;;;5092514;28;20491;-53
2021/12/05 03:50:52;;;;;;;27.83;15.52;;;1.40;99.90;;;;;;5076555;28;20044;-53
2021/12/05 03:53:18;;;;;;;24.55;14.20;;;1.40;99.90;;;;;;5072272;28;20039;-53
2021/12/05 03:55:48;;;;;;;27.05;15.27;;;1.50;99.90;;;;;;5072290;28;20029;-52
2021/12/05 03:58:15;;;;;;;34.65;17.15;;;1.40;99.90;;;;;;5071790;28;20032;-51
2021/12/05 04:00:43;;;;;;;35.40;17.55;;;1.50;99.90;;;;;;5072322;28;20079;-53
2021/12/05 04:03:13;;;;;;;39.10;19.73;;;1.50;99.90;;;;;;5071788;28;20115;-51
2021/12/05 04:05:39;;;;;;;39.35;20.10;;;1.50;99.90;;;;;;5072277;28;20104;-54
2021/12/05 04:08:11;;;;;;;40.78;20.08;;;1.50;99.90;;;;;;5053840;28;20539;-54
2021/12/05 04:10:40;;;;;;;37.20;20.25;;;1.50;99.90;;;;;;5071836;28;20032;-52
2021/12/05 04:13:06;;;;;;;42.67;20.67;;;1.60;99.90;;;;;;5071525;28;20032;-52
2021/12/05 04:15:32;;;;;;;35.80;19.30;;;1.60;99.90;;;;;;5072011;28;20059;-54
2021/12/05 04:17:58;;;;;;;37.03;20.63;;;1.60;99.90;;;;;;5071179;28;20047;-52
2021/12/05 04:20:26;;;;;;;34.45;20.10;;;1.50;99.90;;;;;;5082684;28;20455;-52
2021/12/05 04:22:54;;;;;;;38.72;20.08;;;1.50;99.90;;;;;;5091777;28;20077;-52
2021/12/05 04:25:20;;;;;;;38.30;19.13;;;1.50;99.90;;;;;;5091905;28;20024;-53
2021/12/05 04:27:48;;;;;;;30.52;18.35;;;1.50;99.90;;;;;;5091829;28;20077;-53
2021/12/05 04:30:16;;;;;;;30.00;17.48;;;1.60;99.90;;;;;;5091375;28;20111;-52
2021/12/05 04:32:42;;;;;;;27.27;14.85;;;1.60;99.90;;;;;;5091783;28;20401;-53
2021/12/05 04:35:09;;;;;;;31.05;16.00;;;1.60;99.90;;;;;;5091765;28;20489;-52
2021/12/05 04:37:35;;;;;;;29.88;16.52;;;1.50;99.90;;;;;;5092017;28;20028;-52
2021/12/05 04:40:03;;;;;;;29.85;15.50;;;1.60;99.90;;;;;;5072681;28;20166;-51
2021/12/05 04:42:29;;;;;;;24.98;14.20;;;1.60;99.90;;;;;;5091587;28;20031;-54
2021/12/05 04:44:54;;;;;;;26.88;15.30;;;1.60;99.90;;;;;;5091346;28;20020;-52
2021/12/05 04:47:20;;;;;;;28.58;15.40;;;1.50;99.90;;;;;;5091529;28;20028;-53
2021/12/05 04:49:46;;;;;;;29.40;15.70;;;1.50;99.90;;;;;;5084630;28;20056;-53
2021/12/05 04:52:13;;;;;;;31.17;15.87;;;1.50;99.90;;;;;;5070935;28;20028;-54
2021/12/05 04:54:39;;;;;;;33.55;16.38;;;1.50;99.90;;;;;;5071078;28;20024;-52
2021/12/05 04:57:05;;;;;;;27.15;15.40;;;1.60;99.90;;;;;;5071137;28;20060;-53
2021/12/05 04:59:35;;;;;;;26.58;13.98;;;1.60;99.90;;;;;;5070393;28;20119;-52
2021/12/05 05:02:03;;;;;;;28.20;15.45;;;1.50;99.90;;;;;;5070814;28;20388;-54
2021/12/05 05:04:29;;;;;;;27.00;14.05;;;1.50;99.90;;;;;;5070884;28;20027;-53
2021/12/05 05:07:04;;;;;;;25.23;13.90;;;1.50;99.90;;;;;;5070853;28;20494;-53
2021/12/05 05:09:30;;;;;;;25.83;13.63;;;1.50;99.90;;;;;;5070490;28;20046;-53
2021/12/05 05:11:57;;;;;;;25.38;13.75;;;1.50;99.90;;;;;;5070683;28;20036;-52
2021/12/05 05:14:23;;;;;;;28.48;15.73;;;1.50;99.90;;;;;;5070696;28;20107;-52
2021/12/05 05:16:53;;;;;;;23.67;13.52;;;1.50;99.90;;;;;;5070579;28;20107;-52
2021/12/05 05:19:23;;;;;;;23.55;13.38;;;1.50;99.90;;;;;;5072425;28;20052;-51
2021/12/05 05:40:29;;;;;;;26.15;15.00;;;1.60;99.90;;;;;;5090857;28;20081;-52
2021/12/05 05:51:02;;;;;;;30.20;15.07;;;1.60;99.90;;;;;;5073752;28;20040;-54
2021/12/05 05:53:28;;;;;;;30.30;16.30;;;1.60;99.90;;;;;;5070163;28;20036;-52
2021/12/05 05:55:56;;;;;;;30.23;16.42;;;1.60;99.90;;;;;;5070228;28;20052;-53
2021/12/05 05:58:28;;;;;;;33.17;18.20;;;1.60;99.90;;;;;;5069822;28;20114;-52
2021/12/05 06:01:05;;;;;;;31.30;16.23;;;1.60;99.90;;;;;;5070069;28;20480;-53
2021/12/05 06:03:31;;;;;;;27.33;16.40;;;1.60;99.90;;;;;;5070089;28;20071;-51
2021/12/05 06:06:01;;;;;;;28.98;17.05;;;1.60;99.90;;;;;;5070243;28;20710;-53
2021/12/05 06:08:31;;;;;;;34.53;19.20;;;1.50;99.90;;;;;;5070100;28;20090;-52
2021/12/05 06:10:59;;;;;;;31.48;19.30;;;1.50;99.90;;;;;;5069960;28;20059;-53
2021/12/05 06:13:27;;;;;;;35.08;20.17;;;1.50;99.90;;;;;;5070348;28;20028;-53
2021/12/05 06:15:54;;;;;;;32.28;19.55;;;1.60;99.90;;;;;;5069919;28;20020;-53
2021/12/05 06:18:20;;;;;;;38.78;22.73;;;1.50;99.90;;;;;;5070009;28;20028;-52
2021/12/05 06:20:46;;;;;;;37.25;23.77;;;1.50;99.90;;;;;;5083773;28;20115;-53
2021/12/05 06:23:13;;;;;;;41.00;23.10;;;1.50;99.90;;;;;;5053965;28;20119;-53
2021/12/05 06:25:41;;;;;;;44.35;22.77;;;1.50;99.90;;;;;;5067152;28;20128;-53
2021/12/05 06:28:11;;;;;;;40.45;22.80;;;1.50;99.90;;;;;;5068684;28;20044;-53
2021/12/05 06:39:19;;;;;;;35.95;19.40;;;1.50;99.90;;;;;;5069523;28;20419;-52
2021/12/05 06:47:02;;;;;;;35.10;18.77;;;1.50;99.90;;;;;;5073102;28;20415;-53
2021/12/05 06:49:28;;;;;;;35.95;19.98;;;1.50;99.90;;;;;;5073547;28;20021;-51
2021/12/05 06:51:54;;;;;;;38.08;20.00;;;1.50;99.90;;;;;;5072915;28;20044;-52
2021/12/05 06:54:19;;;;;;;38.42;21.63;;;1.50;99.90;;;;;;5073395;28;20383;-52
2021/12/05 06:56:45;;;;;;;37.15;20.90;;;1.50;99.90;;;;;;5055718;28;20103;-54
2021/12/05 06:59:11;;;;;;;37.38;20.83;;;1.50;99.90;;;;;;5072887;28;20160;-53
2021/12/05 07:01:37;;;;;;;41.15;22.08;;;1.50;99.90;;;;;;5055306;28;20040;-53
2021/12/05 07:04:11;;;;;;;39.30;22.25;;;1.50;99.90;;;;;;5073136;28;20059;-52
2021/12/05 07:06:40;;;;;;;43.63;23.52;;;1.50;99.90;;;;;;5069083;28;20028;-52
2021/12/05 07:09:08;;;;;;;45.95;24.02;;;1.60;99.90;;;;;;5070464;28;20028;-53
2021/12/05 07:11:53;;;;;;;47.75;25.80;;;1.50;99.90;;;;;;5069222;28;20044;-51
2021/12/05 07:16:57;;;;;;;44.67;23.98;;;1.50;99.90;;;;;;5072233;28;20029;-53
2021/12/05 07:22:20;;;;;;;41.10;23.52;;;1.50;99.90;;;;;;5019526;28;20041;-53
2021/12/05 07:24:50;;;;;;;44.63;24.27;;;1.50;99.90;;;;;;5051052;28;20450;-52
2021/12/05 07:41:18;;;;;;;46.22;26.83;;;1.40;99.90;;;;;;5069620;28;20032;-52
2021/12/05 07:43:44;;;;;;;46.38;25.38;;;1.40;99.90;;;;;;5068889;28;20020;-52
2021/12/05 07:46:11;;;;;;;58.80;28.17;;;1.40;99.90;;;;;;5070895;28;20095;-52
2021/12/05 07:48:39;;;;;;;51.20;27.20;;;1.40;99.90;;;;;;5070825;28;20134;-52
2021/12/05 07:51:14;;;;;;;48.40;24.77;;;1.40;99.90;;;;;;5046998;28;20382;-52
2021/12/05 07:53:52;;;;;;;47.15;26.42;;;1.50;99.90;;;;;;5066952;28;20028;-51
2021/12/05 07:56:27;;;;;;;;;;;1.50;99.90;;;;;;5069667;28;20025;-50
2021/12/05 07:59:06;;;;;;;43.75;24.05;;;1.50;99.90;;;;;;5068440;28;20006;-54
2021/12/05 08:15:21;;;;;;;48.45;26.17;;;1.50;99.90;;;;;;5072110;28;20531;-52
2021/12/05 08:17:54;;;;;;;47.97;28.70;;;1.50;99.90;;;;;;5071749;28;20392;-54
2021/12/05 08:20:33;;;;;;;51.85;29.02;;;1.50;99.90;;;;;;5078175;28;20008;-55
2021/12/05 08:23:00;;;;;;;46.92;25.02;;;1.50;99.90;;;;;;5092130;28;20059;-54
2021/12/05 08:25:29;;;;;;;49.78;26.80;;;1.50;99.90;;;;;;5079517;28;20416;-54
2021/12/05 08:28:07;;;;;;;47.45;24.77;;;1.50;99.90;;;;;;5071453;28;20032;-52
2021/12/05 08:30:36;;;;;;;50.53;25.67;;;1.50;99.90;;;;;;5071726;28;20032;-51
2021/12/05 09:30:59;;;;;;;64.85;35.10;;;1.90;99.90;;;;;;5067436;28;20029;-54
2021/12/05 09:52:59;;;;;;;73.38;39.20;;;2.00;99.90;;;;;;5045880;28;20102;-53
2021/12/05 10:03:33;;;;;;;65.38;34.88;;;2.00;99.90;;;;;;5045730;28;20032;-52
2021/12/05 10:14:17;;;;;;;67.43;37.28;;;2.10;99.90;;;;;;5040040;28;20041;-52
2021/12/05 10:38:50;;;;;;;62.90;34.75;;;2.20;99.90;;;;;;5042770;28;20514;-52
2021/12/05 10:43:51;;;;;;;66.75;35.85;;;2.10;99.90;;;;;;5041385;28;20014;-52
2021/12/05 10:46:20;;;;;;;72.57;39.55;;;2.10;99.90;;;;;;5041660;28;20024;-52
2021/12/05 10:49:06;;;;;;;66.32;36.08;;;2.10;99.90;;;;;;5023130;28;20013;-53
2021/12/05 10:51:37;;;;;;;68.63;36.60;;;2.20;99.90;;;;;;5036080;28;20161;-52
2021/12/05 10:54:08;;;;;;;72.85;37.10;;;2.10;99.90;;;;;;5038610;28;20552;-53
2021/12/05 10:56:44;;;;;;;67.82;35.72;;;2.20;99.90;;;;;;5045285;28;20033;-52
2021/12/05 10:59:16;;;;;;;75.57;36.08;;;2.20;99.90;;;;;;5035487;28;20029;-53
2021/12/05 11:01:56;;;;;;;72.15;36.00;;;2.30;99.90;;;;;;5053319;28;20029;-54
2021/12/05 11:04:27;;;;;;;70.13;36.58;;;2.20;99.90;;;;;;5035149;28;20040;-51
2021/12/05 11:06:59;;;;;;;77.78;37.75;;;2.20;99.90;;;;;;5052800;28;20025;-52
2021/12/05 11:09:31;;;;;;;72.35;35.35;;;2.20;99.90;;;;;;5052895;28;20182;-52
2021/12/05 11:11:56;;;;;;;69.32;33.47;;;2.20;99.90;;;;;;5052430;28;20029;-52
2021/12/05 11:14:27;;;;;;;63.75;34.38;;;2.20;99.90;;;;;;5052925;28;20107;-53
2021/12/05 11:16:58;;;;;;;82.60;37.75;;;2.20;99.90;;;;;;5053357;28;20053;-54
2021/12/05 11:19:45;;;;;;;71.25;35.42;;;2.20;99.90;;;;;;5034452;28;20096;-52
2021/12/05 11:22:21;;;;;;;73.32;36.65;;;2.20;99.90;;;;;;5050914;28;20086;-53
2021/12/05 11:24:58;;;;;;;59.33;32.47;;;2.20;99.90;;;;;;5050776;28;20109;-51
2021/12/05 11:27:27;;;;;;;62.40;32.42;;;2.20;99.90;;;;;;5050013;28;20055;-51
2021/12/05 11:30:21;;;;;;;59.30;32.92;;;2.20;99.90;;;;;;5050811;28;20029;-52
2021/12/05 11:32:52;;;;;;;61.42;32.28;;;2.20;99.90;;;;;;5050888;28;20036;-53
2021/12/05 11:35:35;;;;;;;52.42;30.73;;;2.20;99.90;;;;;;5034149;28;20119;-52
2021/12/05 11:38:13;;;;;;;62.33;34.28;;;2.20;99.90;;;;;;5050955;28;20017;-52
2021/12/05 11:41:02;;;;;;;66.20;33.60;;;2.20;99.90;;;;;;5044402;28;20033;-52
2021/12/05 11:43:43;;;;;;;67.18;34.92;;;2.20;99.90;;;;;;5040940;28;20120;-52
2021/12/05 11:46:27;;;;;;;64.20;33.95;;;2.20;99.90;;;;;;5033598;28;20644;-52
2021/12/05 11:49:13;;;;;;;72.00;36.22;;;2.30;99.90;;;;;;5015204;28;20112;-53
2021/12/05 11:52:10;;;;;;;69.07;38.17;;;2.30;99.90;;;;;;5031987;28;20041;-53
2021/12/05 11:54:47;;;;;;;74.43;37.88;;;2.30;99.90;;;;;;5023878;28;20033;-52
2021/12/05 11:57:24;;;;;;;69.70;36.67;;;2.30;99.90;;;;;;5034832;28;21154;-54
2021/12/05 12:00:05;;;;;;;68.82;39.05;;;2.30;99.90;;;;;;5036192;28;20021;-52
2021/12/05 12:02:40;;;;;;;73.57;38.47;;;2.30;99.90;;;;;;5049591;28;20422;-52
2021/12/05 12:05:17;;;;;;;66.68;38.65;;;2.30;99.90;;;;;;5021507;28;20032;-52
2021/12/05 12:07:57;;;;;;;72.90;40.80;;;2.30;99.90;;;;;;5035689;28;20491;-51
2021/12/05 12:10:31;;;;;;;73.05;38.95;;;2.40;99.90;;;;;;5038972;28;20030;-52
2021/12/05 12:13:15;;;;;;;73.15;40.95;;;2.40;99.90;;;;;;5033796;28;20036;-52
2021/12/05 12:15:44;;;;;;;75.25;39.38;;;2.40;99.90;;;;;;5031786;28;20025;-52
2021/12/05 12:18:24;;;;;;;66.68;39.03;;;2.40;99.90;;;;;;5033661;28;20027;-52
2021/12/05 12:20:50;;;;;;;68.82;39.50;;;2.40;99.90;;;;;;5032101;28;20025;-54
2021/12/05 12:23:18;;;;;;;79.30;42.73;;;2.40;99.90;;;;;;5033658;28;20033;-53
2021/12/05 12:25:48;;;;;;;83.72;44.53;;;2.40;99.90;;;;;;5032534;28;20296;-51
2021/12/05 12:28:14;;;;;;;78.60;40.95;;;2.40;99.90;;;;;;5034009;28;20701;-51
2021/12/05 12:30:44;;;;;;;81.63;44.40;;;2.40;99.90;;;;;;5034823;28;20372;-52
2021/12/05 12:33:39;;;;;;;90.25;45.20;;;2.40;99.90;;;;;;5032016;28;20033;-53
2021/12/05 12:36:05;;;;;;;79.10;42.70;;;2.40;99.90;;;;;;5031883;28;20121;-53
2021/12/05 12:38:31;;;;;;;84.05;45.85;;;2.50;99.90;;;;;;5032921;28;20045;-53
2021/12/05 12:41:00;;;;;;;82.07;46.13;;;2.50;99.90;;;;;;5035768;28;20025;-53
2021/12/05 12:43:47;;;;;;;80.65;46.30;;;2.50;99.90;;;;;;5033505;28;20056;-52
2021/12/05 12:46:24;;;;;;;78.03;44.92;;;2.50;99.90;;;;;;5032809;28;20025;-51
2021/12/05 12:48:54;;;;;;;75.15;40.22;;;2.50;99.90;;;;;;5035072;28;20022;-53
2021/12/05 12:51:27;;;;;;;81.35;43.90;;;2.50;99.90;;;;;;5042619;28;20030;-53
2021/12/05 12:53:55;;;;;;;76.60;41.33;;;2.60;99.90;;;;;;5039144;28;20024;-53
2021/12/05 12:56:23;;;;;;;75.22;42.97;;;2.60;99.90;;;;;;5039367;28;20036;-52
2021/12/05 12:59:00;;;;;;;91.53;46.30;;;2.60;99.90;;;;;;5039096;28;20108;-52
2021/12/05 13:12:42;;;;;;;74.78;40.75;;;2.60;99.90;;;;;;5041133;28;20041;-51
2021/12/05 13:15:11;;;;;;;75.28;42.65;;;2.60;99.90;;;;;;5040627;28;20025;-52
2021/12/05 13:18:06;;;;;;;67.30;39.08;;;2.70;99.90;;;;;;5040179;28;20104;-53
2021/12/05 13:20:56;;;;;;;65.00;38.30;;;2.70;99.90;;;;;;5025866;28;20045;-52
2021/12/05 13:23:38;;;;;;;74.90;40.83;;;2.60;99.90;;;;;;5022203;28;20100;-53
2021/12/05 13:26:07;;;;;;;75.72;39.58;;;2.70;99.90;;;;;;5030592;28;20029;-53
2021/12/05 13:28:45;;;;;;;65.72;37.13;;;2.70;99.90;;;;;;5032639;28;20036;-54
2021/12/05 13:31:29;;;;;;;64.50;37.10;;;2.80;99.90;;;;;;5032399;28;20383;-52
2021/12/05 13:34:25;;;;;;;68.63;38.85;;;2.80;99.90;;;;;;5032078;28;20166;-53
2021/12/05 13:36:55;;;;;;;64.45;36.40;;;2.80;99.90;;;;;;5039404;28;20021;-53
2021/12/05 13:39:44;;;;;;;65.85;36.65;;;2.80;99.90;;;;;;5037890;28;20128;-53
2021/12/05 13:42:42;;;;;;;66.95;37.85;;;2.80;99.90;;;;;;5039573;28;20022;-53
2021/12/05 13:45:28;;;;;;;72.07;38.05;;;2.90;99.90;;;;;;5045943;28;20174;-52
2021/12/05 13:47:58;;;;;;;73.63;39.22;;;2.80;99.90;;;;;;5027921;28;20025;-53
2021/12/05 13:50:29;;;;;;;71.97;40.47;;;2.90;99.90;;;;;;5040917;28;20070;-52
2021/12/05 13:53:07;;;;;;;70.45;38.03;;;2.90;99.90;;;;;;5039846;28;20025;-53
2021/12/05 13:55:41;;;;;;;65.82;37.10;;;2.90;99.90;;;;;;5039760;28;20036;-53
2021/12/05 13:58:22;;;;;;;59.33;34.00;;;2.80;99.90;;;;;;5037283;28;20060;-52
2021/12/05 14:00:59;;;;;;;67.00;36.75;;;2.80;99.90;;;;;;5012172;28;20572;-53
2021/12/05 14:03:44;;;;;;;72.05;37.83;;;2.90;99.90;;;;;;5012112;28;20136;-52
2021/12/05 14:06:54;;;;;;;67.57;36.75;;;2.80;99.90;;;;;;5030556;28;20037;-52
2021/12/05 14:09:25;;;;;;;;;;;2.80;99.90;;;;;;5030785;28;20033;-52
2021/12/05 14:12:09;;;;;;;80.63;40.25;;;2.90;99.90;;;;;;5029376;28;19924;-51
2021/12/05 14:15:00;;;;;;;91.35;44.90;;;2.80;99.90;;;;;;5029076;28;20048;-52
2021/12/05 14:17:29;;;;;;;85.57;43.95;;;2.90;99.90;;;;;;5030185;28;20025;-52
2021/12/05 14:20:02;;;;;;;88.85;47.17;;;2.80;99.90;;;;;;5029009;28;20438;-52
2021/12/05 14:22:32;;;;;;;107.50;53.17;;;2.80;99.90;;;;;;5029118;28;20029;-52
2021/12/05 14:25:04;;;;;;;91.28;48.55;;;2.80;99.90;;;;;;5028712;28;20026;-52
2021/12/05 14:27:33;;;;;;;79.57;44.50;;;2.90;99.90;;;;;;5028725;28;20060;-52
2021/12/05 14:30:00;;;;;;;82.97;45.45;;;2.90;99.90;;;;;;5029530;28;20030;-52
2021/12/05 14:32:26;;;;;;;88.72;46.45;;;2.80;99.90;;;;;;5049477;28;20033;-52
2021/12/05 14:35:02;;;;;;;93.32;48.72;;;2.80;99.90;;;;;;5049486;28;20085;-53
2021/12/05 14:37:33;;;;;;;93.75;49.50;;;2.80;99.90;;;;;;5049129;28;20132;-53
2021/12/05 14:40:07;;;;;;;99.40;51.45;;;2.80;99.90;;;;;;5049289;28;20045;-52
2021/12/05 14:42:35;;;;;;;104.40;54.33;;;2.80;99.90;;;;;;5049786;28;20091;-53
2021/12/05 14:45:06;;;;;;;129.07;64.35;;;2.70;99.90;;;;;;5049461;28;20029;-52
2021/12/05 14:47:35;;;;;;;115.55;58.58;;;2.70;99.90;;;;;;5049802;28;20029;-51
2021/12/05 14:50:06;;;;;;;103.13;49.35;;;2.70;99.90;;;;;;5049650;28;20016;-51
2021/12/05 14:52:35;;;;;;;124.40;57.38;;;2.60;99.90;;;;;;5070029;28;20037;-52
2021/12/05 14:55:03;;;;;;;114.95;54.90;;;2.60;99.90;;;;;;5069438;28;20021;-53
2021/12/05 14:57:32;;;;;;;116.97;55.25;;;2.70;99.90;;;;;;5069715;28;20052;-52
2021/12/05 15:00:22;;;;;;;129.98;59.15;;;2.70;99.90;;;;;;5069672;28;20033;-53
2021/12/05 15:02:47;;;;;;;128.00;59.78;;;2.60;99.90;;;;;;5073328;28;20021;-53
2021/12/05 15:05:17;;;;;;;136.50;62.20;;;2.60;99.90;;;;;;5072892;28;20035;-51
2021/12/05 15:07:44;;;;;;;136.95;64.38;;;2.60;99.90;;;;;;5073105;28;20020;-54
2021/12/05 15:10:12;;;;;;;111.50;57.75;;;2.60;99.90;;;;;;5073223;28;20033;-52
2021/12/05 15:12:37;;;;;;;112.03;52.72;;;2.60;99.90;;;;;;5073078;28;20043;-53
2021/12/05 15:15:08;;;;;;;106.32;54.05;;;2.60;99.90;;;;;;5071765;28;20037;-53
2021/12/05 15:17:37;;;;;;;100.70;52.42;;;2.60;99.90;;;;;;5060724;28;20453;-53
2021/12/05 15:20:14;;;;;;;108.10;52.15;;;2.60;99.90;;;;;;5052993;28;20120;-52
2021/12/05 15:22:43;;;;;;;106.93;50.25;;;2.50;99.90;;;;;;5036003;28;20060;-53
2021/12/05 15:25:14;;;;;;;109.00;51.10;;;2.50;99.90;;;;;;5056783;28;20143;-53
2021/12/05 15:27:41;;;;;;;104.30;51.05;;;2.60;99.90;;;;;;5052971;28;20499;-52
2021/12/05 15:30:14;;;;;;;100.35;49.65;;;2.60;99.90;;;;;;5052922;28;20028;-53
2021/12/05 15:32:41;;;;;;;108.47;52.78;;;2.60;99.90;;;;;;5049414;28;20040;-52
2021/12/05 15:35:11;;;;;;;108.13;53.15;;;2.60;99.90;;;;;;5072288;28;20052;-53
2021/12/05 15:37:37;;;;;;;115.28;55.67;;;2.70;99.90;;;;;;5054713;28;20032;-53
2021/12/05 15:40:05;;;;;;;111.63;53.70;;;2.70;99.90;;;;;;5072781;28;20127;-52
2021/12/05 15:42:34;;;;;;;105.13;52.78;;;2.70;99.90;;;;;;5072536;28;20111;-52
2021/12/05 15:45:04;;;;;;;115.43;54.30;;;2.70;99.90;;;;;;5059530;28;20036;-52
2021/12/05 15:47:32;;;;;;;110.57;54.40;;;2.70;99.90;;;;;;5034302;28;20036;-52
2021/12/05 15:50:07;;;;;;;118.97;57.80;;;2.70;99.90;;;;;;5052358;28;20028;-52
2021/12/05 15:52:40;;;;;;;115.72;55.75;;;2.70;99.90;;;;;;5056519;28;20044;-54
2021/12/05 15:55:16;;;;;;;111.47;52.72;;;2.70;99.90;;;;;;5072235;28;20032;-53
2021/12/05 15:57:46;;;;;;;106.80;51.92;;;2.70;99.90;;;;;;5072248;28;20039;-53
2021/12/05 16:00:14;;;;;;;110.93;54.78;;;2.70;99.90;;;;;;5072389;28;20016;-52
2021/12/05 16:02:41;;;;;;;106.00;53.28;;;2.70;99.90;;;;;;5072097;28;20033;-53
2021/12/05 16:05:19;;;;;;;100.70;53.15;;;2.60;99.90;;;;;;5071742;28;20053;-52
2021/12/05 16:07:45;;;;;;;109.15;54.45;;;2.60;99.90;;;;;;5072277;28;20417;-54
2021/12/05 16:10:23;;;;;;;109.38;54.83;;;2.60;99.90;;;;;;5072326;28;20368;-52
2021/12/05 16:12:52;;;;;;;103.60;48.90;;;2.60;99.90;;;;;;5071140;28;20068;-54
2021/12/05 16:15:25;;;;;;;96.75;47.70;;;2.60;99.90;;;;;;5072045;28;20024;-52
2021/12/05 16:17:53;;;;;;;86.93;44.88;;;2.60;99.90;;;;;;5071761;28;20104;-54
2021/12/05 16:20:26;;;;;;;91.40;46.00;;;2.60;99.90;;;;;;5071806;28;20017;-53
2021/12/05 16:23:12;;;;;;;89.88;44.08;;;2.60;99.90;;;;;;5064540;28;20503;-52
2021/12/05 16:25:57;;;;;;;84.63;43.70;;;2.50;99.90;;;;;;5051588;28;20025;-52
2021/12/05 16:28:26;;;;;;;92.18;45.50;;;2.50;99.90;;;;;;5051643;28;20032;-52
2021/12/05 16:30:58;;;;;;;91.65;44.67;;;2.50;99.90;;;;;;5051450;28;20056;-53
2021/12/05 16:33:24;;;;;;;94.57;47.53;;;2.50;99.90;;;;;;5051328;28;20079;-52
2021/12/05 16:35:53;;;;;;;102.57;49.60;;;2.50;99.90;;;;;;5051576;28;20435;-53
2021/12/05 16:38:36;;;;;;;104.80;49.83;;;2.50;99.90;;;;;;5051363;28;20485;-53
2021/12/05 16:41:11;;;;;;;117.50;51.65;;;2.40;99.90;;;;;;5051956;28;20029;-52
2021/12/05 16:43:51;;;;;;;111.18;53.47;;;2.40;99.90;;;;;;5050907;28;20028;-52
2021/12/05 16:46:34;;;;;;;114.43;54.88;;;2.40;99.90;;;;;;5051659;28;20108;-52
2021/12/05 16:49:02;;;;;;;120.10;56.85;;;2.40;99.90;;;;;;5051141;28;20029;-52
2021/12/05 16:51:35;;;;;;;127.63;58.40;;;2.40;99.90;;;;;;5031335;28;20124;-52
2021/12/05 16:54:29;;;;;;;122.07;55.45;;;2.40;99.90;;;;;;5030984;28;20516;-52
2021/12/05 16:57:06;;;;;;;117.40;56.67;;;2.40;99.90;;;;;;5063712;28;20040;-51
2021/12/05 16:59:41;;;;;;;118.70;55.85;;;2.40;99.90;;;;;;5070980;28;20028;-53
2021/12/05 17:02:14;;;;;;;114.18;54.88;;;2.40;99.90;;;;;;5071090;28;20052;-53
2021/12/05 17:05:05;;;;;;;120.07;55.17;;;2.40;99.90;;;;;;5070838;28;20109;-51
2021/12/05 17:08:02;;;;;;;106.95;51.80;;;2.40;99.90;;;;;;5063764;28;20395;-53
2021/12/05 17:10:27;;;;;;;113.68;53.00;;;2.40;99.90;;;;;;5070863;28;20016;-53
2021/12/05 17:12:56;;;;;;;101.70;51.00;;;2.40;99.90;;;;;;5070620;28;20037;-52
2021/12/05 17:15:27;;;;;;;115.15;52.55;;;2.50;99.90;;;;;;5070676;28;20037;-54
2021/12/05 17:18:02;;;;;;;157.80;71.97;;;2.50;99.90;;;;;;5070376;28;20043;-51
2021/12/05 17:20:35;;;;;;;153.40;70.82;;;2.60;99.90;;;;;;5066868;28;20476;-53
2021/12/05 17:23:14;;;;;;;150.25;68.90;;;2.60;99.90;;;;;;5049671;28;20468;-53
2021/12/05 17:25:45;;;;;;;173.73;77.78;;;2.60;99.90;;;;;;5048841;28;20068;-52
2021/12/05 17:28:15;;;;;;;150.23;68.57;;;2.60;99.90;;;;;;5030175;28;20120;-53
2021/12/05 17:30:57;;;;;;;154.70;69.90;;;2.50;99.90;;;;;;5036765;28;20025;-52
2021/12/05 17:33:33;;;;;;;143.80;64.72;;;2.50;99.90;;;;;;5049593;28;20021;-51
2021/12/05 17:36:16;;;;;;;128.63;62.22;;;2.60;99.90;;;;;;5050443;28;20075;-52
2021/12/05 17:38:43;;;;;;;136.05;64.57;;;2.60;99.90;;;;;;5050234;28;20107;-52
2021/12/05 17:41:08;;;;;;;150.82;67.28;;;2.70;99.90;;;;;;5050250;28;20090;-52
2021/12/05 17:43:34;;;;;;;144.75;65.35;;;2.70;99.90;;;;;;5050420;28;20024;-53
2021/12/05 17:46:00;;;;;;;143.85;68.13;;;2.60;99.90;;;;;;5050259;28;20035;-52
2021/12/05 17:48:28;;;;;;;130.07;61.80;;;2.70;99.90;;;;;;5050050;28;20029;-52
2021/12/05 17:50:55;;;;;;;123.47;58.53;;;2.70;99.90;;;;;;5034522;28;20029;-52
2021/12/05 17:53:21;;;;;;;134.75;58.33;;;2.60;99.90;;;;;;5030266;28;20033;-52
2021/12/05 17:55:48;;;;;;;130.88;60.95;;;2.60;99.90;;;;;;5041630;28;20388;-53
2021/12/05 17:58:38;;;;;;;;;;;2.60;99.90;;;;;;5070676;28;20107;-54
2021/12/05 18:03:51;;;;;;;120.57;58.65;;;2.60;99.90;;;;;;5070487;28;20366;-53
2021/12/05 18:06:20;;;;;;;115.43;58.42;;;2.60;99.90;;;;;;5070196;28;20028;-53
2021/12/05 18:08:47;;;;;;;115.47;58.85;;;2.60;99.90;;;;;;5070197;28;20025;-52
2021/12/05 18:11:20;;;;;;;110.40;57.05;;;2.60;99.90;;;;;;5070003;28;20083;-52
2021/12/05 18:13:51;;;;;;;114.30;54.55;;;2.60;99.90;;;;;;5069775;28;20448;-52
2021/12/05 18:16:23;;;;;;;103.65;53.42;;;2.60;99.90;;;;;;5069988;28;20472;-52
2021/12/05 18:18:51;;;;;;;101.70;55.38;;;2.60;99.90;;;;;;5046027;28;20441;-54
2021/12/05 18:21:18;;;;;;;101.10;53.20;;;2.60;99.90;;;;;;5030109;28;20113;-52
2021/12/05 18:23:44;;;;;;;;;;;2.60;99.90;;;;;;5041011;28;20083;-51
2021/12/05 18:26:11;;;;;;;104.65;54.28;;;2.60;99.90;;;;;;5049972;28;19908;-53
2021/12/05 18:28:38;;;;;;;;;;;2.60;99.90;;;;;;5038838;28;20026;-51
2021/12/05 18:31:06;;;;;;;123.97;58.67;;;2.60;99.90;;;;;;5039090;28;20277;-53
2021/12/05 18:33:33;;;;;;;120.05;58.95;;;2.60;99.90;;;;;;5050429;28;20025;-56
2021/12/05 18:35:59;;;;;;;131.05;63.08;;;2.60;99.90;;;;;;5058612;28;20029;-52
2021/12/05 18:38:25;;;;;;;125.00;62.65;;;2.60;99.90;;;;;;5060641;28;20090;-51
2021/12/05 18:40:55;;;;;;;126.80;60.90;;;2.60;99.90;;;;;;5073768;28;20039;-53